HVN654 WSSS-VVTS
Flight info
| Callsign | HVN654 |
|---|---|
| Flight time | 1h 34m |
| Altitude | 39000 |
| Route | VMR9B VMR M771 DUDIS/K0904F400 L644 CN/K0800F190 W9 NIXIV VICAL3G |
| Aircraft | B789/H-SDE1E2E3FGHIJ2J3J4J5M1RWXY/LB1D1 |
Departure
| Time | 2026-05-07 11:33 |
|---|---|
| Airport | Singapore Changi Airport (WSSS) |
Arrival
| Time | 2026-05-07 13:08 |
|---|---|
| Airport | Tan Son Nhat International Airport (VVTS) |
| Time | Latitude | Longitude | Altitude | Speed | Heading |
|---|---|---|---|---|---|
| 2026-05-07 10:57 | 1.34887 | 103.98229 | 29 ft | 0 kts | 30° |
| 2026-05-07 11:18 | 1.34885 | 103.98227 | 29 ft | 2 kts | 31° |
| 2026-05-07 11:18 | 1.34871 | 103.98218 | 28 ft | 2 kts | 40° |
| 2026-05-07 11:18 | 1.34859 | 103.98207 | 27 ft | 2 kts | 38° |
| 2026-05-07 11:19 | 1.34845 | 103.98198 | 27 ft | 2 kts | 18° |
| 2026-05-07 11:19 | 1.34828 | 103.98198 | 26 ft | 2 kts | 332° |
| 2026-05-07 11:19 | 1.34818 | 103.98210 | 27 ft | 2 kts | 293° |
| 2026-05-07 11:19 | 1.34814 | 103.98219 | 27 ft | 0 kts | 292° |
| 2026-05-07 11:23 | 1.34815 | 103.98219 | 29 ft | 1 kts | 292° |
| 2026-05-07 11:23 | 1.34819 | 103.98207 | 29 ft | 3 kts | 292° |
| 2026-05-07 11:23 | 1.34836 | 103.98168 | 29 ft | 10 kts | 292° |
| 2026-05-07 11:23 | 1.34870 | 103.98087 | 29 ft | 15 kts | 295° |
| 2026-05-07 11:24 | 1.34922 | 103.98060 | 29 ft | 7 kts | 7° |
| 2026-05-07 11:24 | 1.34993 | 103.98085 | 29 ft | 14 kts | 23° |
| 2026-05-07 11:24 | 1.35096 | 103.98130 | 29 ft | 17 kts | 23° |
| 2026-05-07 11:24 | 1.35203 | 103.98175 | 29 ft | 17 kts | 23° |
| 2026-05-07 11:25 | 1.35313 | 103.98221 | 29 ft | 18 kts | 22° |
| 2026-05-07 11:25 | 1.35429 | 103.98270 | 29 ft | 19 kts | 22° |
| 2026-05-07 11:25 | 1.35556 | 103.98323 | 29 ft | 20 kts | 22° |
| 2026-05-07 11:25 | 1.35692 | 103.98380 | 28 ft | 22 kts | 23° |
| 2026-05-07 11:26 | 1.35834 | 103.98441 | 29 ft | 23 kts | 23° |
| 2026-05-07 11:26 | 1.35984 | 103.98504 | 28 ft | 24 kts | 23° |
| 2026-05-07 11:26 | 1.36139 | 103.98569 | 29 ft | 24 kts | 22° |
| 2026-05-07 11:26 | 1.36292 | 103.98633 | 29 ft | 24 kts | 23° |
| 2026-05-07 11:27 | 1.36441 | 103.98697 | 29 ft | 23 kts | 23° |
| 2026-05-07 11:27 | 1.36587 | 103.98758 | 29 ft | 23 kts | 23° |
| 2026-05-07 11:27 | 1.36733 | 103.98820 | 29 ft | 23 kts | 23° |
| 2026-05-07 11:27 | 1.36795 | 103.98882 | 29 ft | 5 kts | 96° |
| 2026-05-07 11:28 | 1.36779 | 103.98919 | 29 ft | 9 kts | 113° |
| 2026-05-07 11:28 | 1.36744 | 103.99000 | 29 ft | 16 kts | 113° |
| 2026-05-07 11:28 | 1.36697 | 103.99111 | 29 ft | 18 kts | 113° |
| 2026-05-07 11:28 | 1.36650 | 103.99223 | 29 ft | 17 kts | 113° |
| 2026-05-07 11:29 | 1.36603 | 103.99335 | 29 ft | 17 kts | 113° |
| 2026-05-07 11:29 | 1.36556 | 103.99445 | 29 ft | 17 kts | 113° |
| 2026-05-07 11:29 | 1.36511 | 103.99552 | 29 ft | 17 kts | 113° |
| 2026-05-07 11:29 | 1.36466 | 103.99660 | 29 ft | 17 kts | 112° |
| 2026-05-07 11:30 | 1.36422 | 103.99762 | 29 ft | 15 kts | 113° |
| 2026-05-07 11:30 | 1.36391 | 103.99822 | 29 ft | 2 kts | 136° |
| 2026-05-07 11:30 | 1.36389 | 103.99824 | 29 ft | 0 kts | 139° |
| 2026-05-07 11:31 | 1.36383 | 103.99829 | 28 ft | 3 kts | 143° |
| 2026-05-07 11:31 | 1.36355 | 103.99843 | 29 ft | 8 kts | 158° |
| 2026-05-07 11:32 | 1.36212 | 103.99886 | 29 ft | 11 kts | 175° |
| 2026-05-07 11:32 | 1.36137 | 103.99867 | 29 ft | 13 kts | 204° |
| 2026-05-07 11:32 | 1.35952 | 103.99788 | 29 ft | 54 kts | 202° |
| 2026-05-07 11:33 | 1.35421 | 103.99565 | 29 ft | 111 kts | 203° |
| 2026-05-07 11:33 | 1.34552 | 103.99196 | 30 ft | 158 kts | 202° |
| 2026-05-07 11:33 | 1.33451 | 103.98716 | 296 ft | 175 kts | 209° |
| 2026-05-07 11:33 | 1.32374 | 103.98226 | 1024 ft | 170 kts | 205° |
| 2026-05-07 11:34 | 1.31282 | 103.97740 | 1644 ft | 179 kts | 200° |
| 2026-05-07 11:34 | 1.29988 | 103.97566 | 1928 ft | 204 kts | 169° |
| 2026-05-07 11:34 | 1.28761 | 103.98367 | 2291 ft | 228 kts | 126° |
| 2026-05-07 11:34 | 1.28013 | 103.99871 | 2744 ft | 255 kts | 112° |
| 2026-05-07 11:35 | 1.27353 | 104.01570 | 3541 ft | 264 kts | 110° |
| 2026-05-07 11:35 | 1.26721 | 104.03295 | 4559 ft | 266 kts | 107° |
| 2026-05-07 11:35 | 1.26697 | 104.05123 | 5475 ft | 269 kts | 71° |
| 2026-05-07 11:35 | 1.27751 | 104.06716 | 6019 ft | 286 kts | 40° |
| 2026-05-07 11:36 | 1.29439 | 104.07702 | 6411 ft | 282 kts | 24° |
| 2026-05-07 11:36 | 1.31282 | 104.08313 | 7332 ft | 283 kts | 5° |
| 2026-05-07 11:36 | 1.33198 | 104.07940 | 8172 ft | 287 kts | 337° |
| 2026-05-07 11:36 | 1.34940 | 104.07045 | 8961 ft | 292 kts | 332° |
| 2026-05-07 11:37 | 1.36770 | 104.06129 | 9786 ft | 296 kts | 338° |
| 2026-05-07 11:37 | 1.38713 | 104.05370 | 10370 ft | 308 kts | 341° |
| 2026-05-07 11:37 | 1.40827 | 104.04626 | 10523 ft | 335 kts | 341° |
| 2026-05-07 11:37 | 1.43102 | 104.03767 | 10624 ft | 362 kts | 340° |
| 2026-05-07 11:38 | 1.45452 | 104.02830 | 11297 ft | 364 kts | 339° |
| 2026-05-07 11:38 | 1.47829 | 104.01902 | 11997 ft | 369 kts | 340° |
| 2026-05-07 11:38 | 1.50203 | 104.00997 | 12678 ft | 372 kts | 340° |
| 2026-05-07 11:38 | 1.52628 | 104.00068 | 13342 ft | 376 kts | 340° |
| 2026-05-07 11:39 | 1.55088 | 103.99116 | 13954 ft | 380 kts | 340° |
| 2026-05-07 11:39 | 1.57568 | 103.98155 | 14550 ft | 384 kts | 340° |
| 2026-05-07 11:39 | 1.60072 | 103.97190 | 15148 ft | 388 kts | 340° |
| 2026-05-07 11:39 | 1.62598 | 103.96217 | 15730 ft | 391 kts | 340° |
| 2026-05-07 11:40 | 1.65148 | 103.95233 | 16313 ft | 395 kts | 340° |
| 2026-05-07 11:40 | 1.67724 | 103.94239 | 16868 ft | 399 kts | 340° |
| 2026-05-07 11:40 | 1.70324 | 103.93235 | 17401 ft | 402 kts | 340° |
| 2026-05-07 11:40 | 1.72915 | 103.92236 | 17916 ft | 406 kts | 341° |
| 2026-05-07 11:41 | 1.75588 | 103.91317 | 18349 ft | 407 kts | 351° |
| 2026-05-07 11:41 | 1.78398 | 103.91001 | 18763 ft | 408 kts | 358° |
| 2026-05-07 11:41 | 1.81238 | 103.90813 | 19219 ft | 409 kts | 359° |
| 2026-05-07 11:41 | 1.84092 | 103.90659 | 19639 ft | 413 kts | 359° |
| 2026-05-07 11:42 | 1.86967 | 103.90483 | 20083 ft | 416 kts | 358° |
| 2026-05-07 11:42 | 1.89863 | 103.90286 | 20510 ft | 418 kts | 358° |
| 2026-05-07 11:42 | 1.92775 | 103.90095 | 20926 ft | 421 kts | 358° |
| 2026-05-07 11:42 | 1.95708 | 103.89914 | 21327 ft | 424 kts | 358° |
| 2026-05-07 11:43 | 1.98620 | 103.89732 | 21710 ft | 426 kts | 358° |
| 2026-05-07 11:43 | 2.01586 | 103.89541 | 22088 ft | 429 kts | 358° |
| 2026-05-07 11:43 | 2.04575 | 103.89348 | 22469 ft | 431 kts | 358° |
| 2026-05-07 11:43 | 2.07585 | 103.89157 | 22833 ft | 434 kts | 358° |
| 2026-05-07 11:44 | 2.10603 | 103.88966 | 23176 ft | 437 kts | 358° |
| 2026-05-07 11:44 | 2.13643 | 103.88773 | 23493 ft | 439 kts | 358° |
| 2026-05-07 11:44 | 2.16703 | 103.88577 | 23778 ft | 441 kts | 358° |
| 2026-05-07 11:44 | 2.19773 | 103.88381 | 24052 ft | 443 kts | 358° |
| 2026-05-07 11:45 | 2.22856 | 103.88185 | 24334 ft | 445 kts | 358° |
| 2026-05-07 11:45 | 2.25956 | 103.87988 | 24603 ft | 447 kts | 358° |
| 2026-05-07 11:45 | 2.29073 | 103.87789 | 24878 ft | 450 kts | 358° |
| 2026-05-07 11:45 | 2.32156 | 103.87592 | 25132 ft | 451 kts | 358° |
| 2026-05-07 11:46 | 2.35298 | 103.87439 | 25377 ft | 452 kts | 4° |
| 2026-05-07 11:46 | 2.38409 | 103.87844 | 25636 ft | 452 kts | 15° |
| 2026-05-07 11:46 | 2.41369 | 103.88876 | 25891 ft | 451 kts | 27° |
| 2026-05-07 11:46 | 2.44091 | 103.90436 | 26103 ft | 453 kts | 33° |
| 2026-05-07 11:47 | 2.46779 | 103.92096 | 26367 ft | 454 kts | 33° |
| 2026-05-07 11:47 | 2.49462 | 103.93778 | 26629 ft | 457 kts | 33° |
| 2026-05-07 11:47 | 2.52126 | 103.95444 | 26881 ft | 459 kts | 33° |
| 2026-05-07 11:47 | 2.54843 | 103.97129 | 27156 ft | 461 kts | 33° |
| 2026-05-07 11:48 | 2.57574 | 103.98823 | 27412 ft | 463 kts | 33° |
| 2026-05-07 11:48 | 2.60319 | 104.00534 | 27669 ft | 465 kts | 33° |
| 2026-05-07 11:48 | 2.63073 | 104.02251 | 27933 ft | 468 kts | 33° |
| 2026-05-07 11:48 | 2.65841 | 104.03973 | 28225 ft | 470 kts | 33° |
| 2026-05-07 11:49 | 2.68621 | 104.05702 | 28504 ft | 472 kts | 33° |
| 2026-05-07 11:49 | 2.71408 | 104.07437 | 28762 ft | 474 kts | 33° |
| 2026-05-07 11:49 | 2.74215 | 104.09186 | 29040 ft | 476 kts | 33° |
| 2026-05-07 11:49 | 2.77034 | 104.10941 | 29324 ft | 478 kts | 32° |
| 2026-05-07 11:50 | 2.79873 | 104.12708 | 29604 ft | 481 kts | 32° |
| 2026-05-07 11:50 | 2.82714 | 104.14477 | 29868 ft | 483 kts | 33° |
| 2026-05-07 11:50 | 2.85532 | 104.16232 | 30105 ft | 484 kts | 32° |
| 2026-05-07 11:50 | 2.88397 | 104.18016 | 30357 ft | 486 kts | 33° |
| 2026-05-07 11:51 | 2.91270 | 104.19805 | 30610 ft | 487 kts | 33° |
| 2026-05-07 11:51 | 2.94151 | 104.21599 | 30851 ft | 489 kts | 33° |
| 2026-05-07 11:51 | 2.97047 | 104.23403 | 31090 ft | 490 kts | 33° |
| 2026-05-07 11:51 | 2.99946 | 104.25209 | 31339 ft | 492 kts | 33° |
| 2026-05-07 11:52 | 3.02860 | 104.27024 | 31571 ft | 494 kts | 33° |
| 2026-05-07 11:52 | 3.05779 | 104.28842 | 31801 ft | 495 kts | 33° |
| 2026-05-07 11:52 | 3.08701 | 104.30682 | 32025 ft | 497 kts | 33° |
| 2026-05-07 11:52 | 3.11613 | 104.32547 | 32252 ft | 499 kts | 33° |
| 2026-05-07 11:53 | 3.14543 | 104.34416 | 32467 ft | 500 kts | 33° |
| 2026-05-07 11:53 | 3.17471 | 104.36225 | 32673 ft | 502 kts | 32° |
| 2026-05-07 11:53 | 3.20462 | 104.38048 | 32887 ft | 504 kts | 33° |
| 2026-05-07 11:53 | 3.23447 | 104.39902 | 33088 ft | 506 kts | 33° |
| 2026-05-07 11:54 | 3.26425 | 104.41770 | 33384 ft | 505 kts | 33° |
| 2026-05-07 11:54 | 3.29414 | 104.43629 | 33701 ft | 505 kts | 33° |
| 2026-05-07 11:54 | 3.32399 | 104.45472 | 33979 ft | 504 kts | 33° |
| 2026-05-07 11:54 | 3.35379 | 104.47319 | 34241 ft | 504 kts | 33° |
| 2026-05-07 11:55 | 3.38355 | 104.49173 | 34495 ft | 504 kts | 33° |
| 2026-05-07 11:55 | 3.41330 | 104.51023 | 34758 ft | 503 kts | 33° |
| 2026-05-07 11:55 | 3.44301 | 104.52866 | 35042 ft | 502 kts | 33° |
| 2026-05-07 11:55 | 3.47273 | 104.54710 | 35313 ft | 502 kts | 33° |
| 2026-05-07 11:56 | 3.50192 | 104.56526 | 35580 ft | 501 kts | 33° |
| 2026-05-07 11:56 | 3.53153 | 104.58367 | 35866 ft | 500 kts | 33° |
| 2026-05-07 11:56 | 3.56103 | 104.60200 | 36137 ft | 499 kts | 32° |
| 2026-05-07 11:56 | 3.59053 | 104.62032 | 36405 ft | 499 kts | 32° |
| 2026-05-07 11:57 | 3.61999 | 104.63863 | 36680 ft | 498 kts | 32° |
| 2026-05-07 11:57 | 3.64937 | 104.65690 | 36947 ft | 497 kts | 32° |
| 2026-05-07 11:57 | 3.67872 | 104.67515 | 37215 ft | 496 kts | 32° |
| 2026-05-07 11:57 | 3.70799 | 104.69334 | 37485 ft | 495 kts | 32° |
| 2026-05-07 11:58 | 3.73723 | 104.71152 | 37744 ft | 494 kts | 32° |
| 2026-05-07 11:58 | 3.76606 | 104.72945 | 38013 ft | 494 kts | 32° |
| 2026-05-07 11:58 | 3.79521 | 104.74758 | 38273 ft | 493 kts | 32° |
| 2026-05-07 11:58 | 3.82426 | 104.76564 | 38522 ft | 492 kts | 32° |
| 2026-05-07 11:59 | 3.85335 | 104.78375 | 38714 ft | 491 kts | 32° |
| 2026-05-07 11:59 | 3.91162 | 104.82001 | 38792 ft | 495 kts | 32° |
| 2026-05-07 12:00 | 3.96973 | 104.85617 | 38793 ft | 490 kts | 32° |
| 2026-05-07 12:00 | 4.02712 | 104.89190 | 38799 ft | 488 kts | 32° |
| 2026-05-07 12:01 | 4.08479 | 104.92781 | 38789 ft | 488 kts | 32° |
| 2026-05-07 12:01 | 4.14246 | 104.96372 | 38794 ft | 488 kts | 32° |
| 2026-05-07 12:02 | 4.20012 | 104.99963 | 38799 ft | 488 kts | 32° |
| 2026-05-07 12:02 | 4.25783 | 105.03550 | 38800 ft | 488 kts | 32° |
| 2026-05-07 12:03 | 4.31551 | 105.07132 | 38802 ft | 488 kts | 32° |
| 2026-05-07 12:03 | 4.37277 | 105.10692 | 38802 ft | 488 kts | 32° |
| 2026-05-07 12:04 | 4.43046 | 105.14277 | 38805 ft | 488 kts | 32° |
| 2026-05-07 12:04 | 4.48821 | 105.17867 | 38797 ft | 488 kts | 32° |
| 2026-05-07 12:05 | 4.54592 | 105.21455 | 38802 ft | 488 kts | 32° |
| 2026-05-07 12:05 | 4.60328 | 105.25023 | 38801 ft | 488 kts | 32° |
| 2026-05-07 12:06 | 4.66096 | 105.28611 | 38804 ft | 488 kts | 32° |
| 2026-05-07 12:06 | 4.71869 | 105.32202 | 38809 ft | 489 kts | 32° |
| 2026-05-07 12:07 | 4.77646 | 105.35797 | 38811 ft | 489 kts | 32° |
| 2026-05-07 12:07 | 4.83370 | 105.39466 | 38809 ft | 488 kts | 34° |
| 2026-05-07 12:08 | 4.89088 | 105.43122 | 38810 ft | 488 kts | 33° |
| 2026-05-07 12:08 | 4.94724 | 105.46820 | 38811 ft | 486 kts | 34° |
| 2026-05-07 12:09 | 5.00397 | 105.50501 | 38807 ft | 486 kts | 33° |
| 2026-05-07 12:09 | 5.06072 | 105.54199 | 38808 ft | 487 kts | 34° |
| 2026-05-07 12:10 | 5.11761 | 105.57905 | 38810 ft | 488 kts | 34° |
| 2026-05-07 12:10 | 5.17426 | 105.61593 | 38813 ft | 489 kts | 34° |
| 2026-05-07 12:11 | 5.23127 | 105.65309 | 38812 ft | 489 kts | 34° |
| 2026-05-07 12:11 | 5.28838 | 105.69030 | 38809 ft | 490 kts | 34° |
| 2026-05-07 12:12 | 5.34546 | 105.72751 | 38811 ft | 489 kts | 34° |
| 2026-05-07 12:12 | 5.40245 | 105.76466 | 38810 ft | 488 kts | 34° |
| 2026-05-07 12:13 | 5.45905 | 105.80157 | 38807 ft | 489 kts | 34° |
| 2026-05-07 12:13 | 5.51615 | 105.83882 | 38808 ft | 490 kts | 34° |
| 2026-05-07 12:14 | 5.57339 | 105.87616 | 38815 ft | 491 kts | 34° |
| 2026-05-07 12:14 | 5.63067 | 105.91354 | 38814 ft | 491 kts | 34° |
| 2026-05-07 12:15 | 5.68790 | 105.95089 | 38810 ft | 490 kts | 34° |
| 2026-05-07 12:15 | 5.74498 | 105.98816 | 38813 ft | 489 kts | 34° |
| 2026-05-07 12:16 | 5.80161 | 106.02514 | 38810 ft | 489 kts | 34° |
| 2026-05-07 12:16 | 5.85862 | 106.06238 | 38811 ft | 488 kts | 34° |
| 2026-05-07 12:17 | 5.91549 | 106.09954 | 38808 ft | 488 kts | 34° |
| 2026-05-07 12:17 | 5.97233 | 106.13668 | 38811 ft | 487 kts | 34° |
| 2026-05-07 12:18 | 6.02875 | 106.17356 | 38810 ft | 487 kts | 33° |
| 2026-05-07 12:18 | 6.08553 | 106.21069 | 38812 ft | 487 kts | 33° |
| 2026-05-07 12:19 | 6.14235 | 106.24785 | 38810 ft | 488 kts | 33° |
| 2026-05-07 12:19 | 6.19929 | 106.28510 | 38809 ft | 489 kts | 33° |
| 2026-05-07 12:20 | 6.25591 | 106.32215 | 38810 ft | 489 kts | 33° |
| 2026-05-07 12:20 | 6.31298 | 106.35950 | 38811 ft | 489 kts | 33° |
| 2026-05-07 12:21 | 6.37005 | 106.39687 | 38812 ft | 490 kts | 33° |
| 2026-05-07 12:21 | 6.42719 | 106.43429 | 38810 ft | 490 kts | 33° |
| 2026-05-07 12:22 | 6.48437 | 106.47174 | 38807 ft | 490 kts | 33° |
| 2026-05-07 12:22 | 6.54111 | 106.50892 | 38805 ft | 490 kts | 33° |
| 2026-05-07 12:23 | 6.59822 | 106.54635 | 38806 ft | 490 kts | 33° |
| 2026-05-07 12:23 | 6.65534 | 106.58380 | 38802 ft | 490 kts | 33° |
| 2026-05-07 12:24 | 6.71243 | 106.62123 | 38804 ft | 490 kts | 33° |
| 2026-05-07 12:24 | 6.76950 | 106.65867 | 38806 ft | 490 kts | 33° |
| 2026-05-07 12:25 | 6.82632 | 106.69596 | 38804 ft | 491 kts | 33° |
| 2026-05-07 12:25 | 6.88350 | 106.73349 | 38806 ft | 491 kts | 33° |
| 2026-05-07 12:26 | 6.94071 | 106.77105 | 38807 ft | 491 kts | 33° |
| 2026-05-07 12:26 | 7.00192 | 106.79947 | 38845 ft | 492 kts | 12° |
| 2026-05-07 12:26 | 7.03589 | 106.80427 | 38845 ft | 494 kts | 1° |
| 2026-05-07 12:27 | 7.07015 | 106.80254 | 38844 ft | 494 kts | 354° |
| 2026-05-07 12:27 | 7.13861 | 106.79543 | 38820 ft | 494 kts | 354° |
| 2026-05-07 12:28 | 7.20692 | 106.78811 | 38820 ft | 493 kts | 354° |
| 2026-05-07 12:28 | 7.27523 | 106.78098 | 38820 ft | 493 kts | 354° |
| 2026-05-07 12:29 | 7.34307 | 106.77375 | 38822 ft | 494 kts | 354° |
| 2026-05-07 12:29 | 7.41135 | 106.76657 | 38825 ft | 494 kts | 354° |
| 2026-05-07 12:30 | 7.47969 | 106.75932 | 38827 ft | 493 kts | 354° |
| 2026-05-07 12:30 | 7.54743 | 106.75217 | 38823 ft | 493 kts | 354° |
| 2026-05-07 12:31 | 7.61549 | 106.74496 | 38824 ft | 492 kts | 354° |
| 2026-05-07 12:31 | 7.68361 | 106.73776 | 38818 ft | 492 kts | 354° |
| 2026-05-07 12:32 | 7.75165 | 106.73055 | 38821 ft | 491 kts | 354° |
| 2026-05-07 12:32 | 7.81961 | 106.72336 | 38818 ft | 491 kts | 354° |
| 2026-05-07 12:33 | 7.92095 | 106.71262 | 38819 ft | 490 kts | 354° |
| 2026-05-07 12:33 | 7.98868 | 106.70544 | 38815 ft | 489 kts | 354° |
| 2026-05-07 12:34 | 8.05635 | 106.69827 | 38814 ft | 489 kts | 354° |
| 2026-05-07 12:34 | 8.12357 | 106.69114 | 38811 ft | 489 kts | 354° |
| 2026-05-07 12:35 | 8.19124 | 106.68396 | 38818 ft | 489 kts | 354° |
| 2026-05-07 12:35 | 8.25885 | 106.67679 | 38818 ft | 488 kts | 354° |
| 2026-05-07 12:36 | 8.32632 | 106.66962 | 38816 ft | 487 kts | 354° |
| 2026-05-07 12:36 | 8.39323 | 106.66252 | 38819 ft | 486 kts | 354° |
| 2026-05-07 12:37 | 8.46044 | 106.65538 | 38817 ft | 485 kts | 354° |
| 2026-05-07 12:37 | 8.52759 | 106.64824 | 38818 ft | 485 kts | 354° |
| 2026-05-07 12:38 | 8.59470 | 106.64111 | 38817 ft | 485 kts | 354° |
| 2026-05-07 12:38 | 8.66173 | 106.63398 | 38817 ft | 484 kts | 354° |
| 2026-05-07 12:39 | 8.72823 | 106.62699 | 38820 ft | 483 kts | 356° |
| 2026-05-07 12:39 | 8.79552 | 106.62715 | 38828 ft | 484 kts | 0° |
| 2026-05-07 12:40 | 8.86283 | 106.62788 | 38783 ft | 481 kts | 0° |
| 2026-05-07 12:40 | 8.89628 | 106.62826 | 37965 ft | 483 kts | 0° |
| 2026-05-07 12:40 | 8.92949 | 106.62865 | 37316 ft | 482 kts | 0° |
| 2026-05-07 12:41 | 8.96298 | 106.62903 | 36681 ft | 481 kts | 0° |
| 2026-05-07 12:41 | 8.99648 | 106.62939 | 36022 ft | 481 kts | 0° |
| 2026-05-07 12:41 | 9.02998 | 106.62977 | 35330 ft | 483 kts | 0° |
| 2026-05-07 12:41 | 9.06375 | 106.63016 | 34651 ft | 487 kts | 0° |
| 2026-05-07 12:42 | 9.09782 | 106.63054 | 33912 ft | 493 kts | 0° |
| 2026-05-07 12:42 | 9.13234 | 106.63093 | 33102 ft | 498 kts | 1° |
| 2026-05-07 12:42 | 9.16702 | 106.63132 | 32311 ft | 500 kts | 1° |
| 2026-05-07 12:42 | 9.20138 | 106.63171 | 31531 ft | 500 kts | 1° |
| 2026-05-07 12:43 | 9.23605 | 106.63211 | 30733 ft | 498 kts | 1° |
| 2026-05-07 12:43 | 9.27070 | 106.63250 | 29955 ft | 498 kts | 1° |
| 2026-05-07 12:43 | 9.30529 | 106.63289 | 29133 ft | 495 kts | 1° |
| 2026-05-07 12:43 | 9.33957 | 106.63328 | 28368 ft | 491 kts | 1° |
| 2026-05-07 12:44 | 9.37363 | 106.63366 | 27608 ft | 487 kts | 1° |
| 2026-05-07 12:44 | 9.40724 | 106.63591 | 26878 ft | 481 kts | 9° |
| 2026-05-07 12:44 | 9.43976 | 106.64097 | 26136 ft | 478 kts | 9° |
| 2026-05-07 12:44 | 9.47252 | 106.64614 | 25403 ft | 475 kts | 10° |
| 2026-05-07 12:45 | 9.50509 | 106.65122 | 24679 ft | 472 kts | 9° |
| 2026-05-07 12:45 | 9.53746 | 106.65617 | 23966 ft | 469 kts | 9° |
| 2026-05-07 12:45 | 9.56963 | 106.66112 | 23201 ft | 466 kts | 10° |
| 2026-05-07 12:45 | 9.60152 | 106.66607 | 22489 ft | 461 kts | 10° |
| 2026-05-07 12:46 | 9.63304 | 106.67097 | 21796 ft | 455 kts | 10° |
| 2026-05-07 12:46 | 9.66371 | 106.67571 | 21112 ft | 449 kts | 10° |
| 2026-05-07 12:46 | 9.69440 | 106.68045 | 20445 ft | 444 kts | 10° |
| 2026-05-07 12:46 | 9.72475 | 106.68515 | 19771 ft | 438 kts | 10° |
| 2026-05-07 12:47 | 9.75472 | 106.68980 | 19120 ft | 433 kts | 11° |
| 2026-05-07 12:47 | 9.78438 | 106.69439 | 18471 ft | 429 kts | 11° |
| 2026-05-07 12:47 | 9.81368 | 106.69893 | 17798 ft | 424 kts | 11° |
| 2026-05-07 12:47 | 9.84259 | 106.70342 | 17161 ft | 417 kts | 11° |
| 2026-05-07 12:48 | 9.87102 | 106.70782 | 16547 ft | 410 kts | 11° |
| 2026-05-07 12:48 | 9.89868 | 106.71211 | 15940 ft | 404 kts | 11° |
| 2026-05-07 12:48 | 9.92621 | 106.71638 | 15341 ft | 398 kts | 11° |
| 2026-05-07 12:48 | 9.95317 | 106.72055 | 14921 ft | 387 kts | 11° |
| 2026-05-07 12:49 | 9.97959 | 106.72465 | 14363 ft | 381 kts | 11° |
| 2026-05-07 12:49 | 10.00568 | 106.72871 | 13796 ft | 377 kts | 11° |
| 2026-05-07 12:49 | 10.03144 | 106.73271 | 13206 ft | 372 kts | 11° |
| 2026-05-07 12:49 | 10.05675 | 106.73663 | 12667 ft | 367 kts | 11° |
| 2026-05-07 12:50 | 10.08168 | 106.74050 | 12108 ft | 366 kts | 11° |
| 2026-05-07 12:50 | 10.10664 | 106.74438 | 11577 ft | 360 kts | 11° |
| 2026-05-07 12:50 | 10.13122 | 106.74819 | 11045 ft | 354 kts | 11° |
| 2026-05-07 12:50 | 10.15479 | 106.75298 | 10823 ft | 335 kts | 19° |
| 2026-05-07 12:51 | 10.17644 | 106.75968 | 10694 ft | 317 kts | 18° |
| 2026-05-07 12:51 | 10.19715 | 106.76553 | 10559 ft | 301 kts | 18° |
| 2026-05-07 12:51 | 10.21678 | 106.77121 | 10431 ft | 286 kts | 18° |
| 2026-05-07 12:51 | 10.23542 | 106.77677 | 10277 ft | 274 kts | 19° |
| 2026-05-07 12:52 | 10.25377 | 106.78225 | 10031 ft | 276 kts | 19° |
| 2026-05-07 12:52 | 10.26595 | 106.78585 | 9854 ft | 276 kts | 18° |
| 2026-05-07 12:52 | 10.29030 | 106.79301 | 9489 ft | 275 kts | 19° |
| 2026-05-07 12:52 | 10.30863 | 106.79841 | 9218 ft | 272 kts | 19° |
| 2026-05-07 12:53 | 10.32658 | 106.80371 | 8962 ft | 268 kts | 18° |
| 2026-05-07 12:53 | 10.34461 | 106.80905 | 8704 ft | 271 kts | 18° |
| 2026-05-07 12:53 | 10.36268 | 106.81438 | 8444 ft | 268 kts | 18° |
| 2026-05-07 12:53 | 10.38046 | 106.81962 | 8179 ft | 266 kts | 18° |
| 2026-05-07 12:54 | 10.39835 | 106.82492 | 7933 ft | 268 kts | 18° |
| 2026-05-07 12:54 | 10.41579 | 106.83006 | 7672 ft | 262 kts | 18° |
| 2026-05-07 12:54 | 10.43339 | 106.83527 | 7415 ft | 266 kts | 18° |
| 2026-05-07 12:54 | 10.45112 | 106.84050 | 7153 ft | 262 kts | 18° |
| 2026-05-07 12:55 | 10.46225 | 106.84466 | 6998 ft | 253 kts | 31° |
| 2026-05-07 12:55 | 10.47860 | 106.86085 | 6994 ft | 249 kts | 62° |
| 2026-05-07 12:55 | 10.48285 | 106.87164 | 7000 ft | 249 kts | 74° |
| 2026-05-07 12:55 | 10.48727 | 106.88867 | 7007 ft | 250 kts | 75° |
| 2026-05-07 12:56 | 10.49277 | 106.91141 | 7003 ft | 250 kts | 76° |
| 2026-05-07 12:56 | 10.49696 | 106.92855 | 7012 ft | 250 kts | 75° |
| 2026-05-07 12:56 | 10.50122 | 106.94568 | 7011 ft | 250 kts | 75° |
| 2026-05-07 12:56 | 10.50548 | 106.96279 | 7013 ft | 250 kts | 75° |
| 2026-05-07 12:57 | 10.51150 | 106.97915 | 6984 ft | 248 kts | 51° |
| 2026-05-07 12:57 | 10.51995 | 106.98674 | 7012 ft | 250 kts | 34° |
| 2026-05-07 12:57 | 10.53602 | 106.99336 | 7012 ft | 253 kts | 10° |
| 2026-05-07 12:57 | 10.55896 | 106.99075 | 7017 ft | 258 kts | 343° |
| 2026-05-07 12:58 | 10.57591 | 106.98474 | 7010 ft | 258 kts | 343° |
| 2026-05-07 12:58 | 10.59285 | 106.97898 | 7011 ft | 258 kts | 345° |
| 2026-05-07 12:58 | 10.60424 | 106.97527 | 7011 ft | 258 kts | 345° |
| 2026-05-07 12:58 | 10.62131 | 106.96975 | 7009 ft | 257 kts | 345° |
| 2026-05-07 12:59 | 10.63833 | 106.96419 | 7010 ft | 258 kts | 345° |
| 2026-05-07 12:59 | 10.65541 | 106.95857 | 6935 ft | 254 kts | 344° |
| 2026-05-07 12:59 | 10.67751 | 106.95131 | 6679 ft | 254 kts | 345° |
| 2026-05-07 12:59 | 10.69435 | 106.94580 | 6444 ft | 252 kts | 345° |
| 2026-05-07 13:00 | 10.70551 | 106.94213 | 6291 ft | 250 kts | 345° |
| 2026-05-07 13:00 | 10.72757 | 106.93490 | 5969 ft | 252 kts | 344° |
| 2026-05-07 13:00 | 10.73855 | 106.93130 | 5816 ft | 252 kts | 344° |
| 2026-05-07 13:00 | 10.75531 | 106.92580 | 5592 ft | 252 kts | 344° |
| 2026-05-07 13:01 | 10.77171 | 106.92041 | 5347 ft | 246 kts | 344° |
| 2026-05-07 13:01 | 10.78819 | 106.91502 | 5128 ft | 250 kts | 344° |
| 2026-05-07 13:01 | 10.81015 | 106.90780 | 4793 ft | 250 kts | 344° |
| 2026-05-07 13:01 | 10.82126 | 106.90415 | 4605 ft | 247 kts | 344° |
| 2026-05-07 13:02 | 10.84270 | 106.89710 | 4185 ft | 242 kts | 344° |
| 2026-05-07 13:02 | 10.85346 | 106.89357 | 3992 ft | 240 kts | 344° |
| 2026-05-07 13:02 | 10.86906 | 106.88846 | 3689 ft | 238 kts | 344° |
| 2026-05-07 13:02 | 10.88373 | 106.88098 | 3361 ft | 239 kts | 316° |
| 2026-05-07 13:03 | 10.89272 | 106.86686 | 3039 ft | 239 kts | 285° |
| 2026-05-07 13:03 | 10.89281 | 106.85067 | 3031 ft | 224 kts | 258° |
| 2026-05-07 13:03 | 10.88904 | 106.83521 | 3056 ft | 222 kts | 251° |
| 2026-05-07 13:03 | 10.88231 | 106.81628 | 3031 ft | 214 kts | 247° |
| 2026-05-07 13:04 | 10.87869 | 106.80665 | 2871 ft | 215 kts | 247° |
| 2026-05-07 13:04 | 10.87340 | 106.79249 | 2605 ft | 212 kts | 246° |
| 2026-05-07 13:04 | 10.86825 | 106.77876 | 2335 ft | 205 kts | 246° |
| 2026-05-07 13:04 | 10.86337 | 106.76570 | 2072 ft | 194 kts | 246° |
| 2026-05-07 13:05 | 10.85867 | 106.75315 | 1823 ft | 189 kts | 246° |
| 2026-05-07 13:05 | 10.85399 | 106.74082 | 1589 ft | 183 kts | 245° |
| 2026-05-07 13:05 | 10.84956 | 106.72904 | 1365 ft | 176 kts | 246° |
| 2026-05-07 13:05 | 10.84517 | 106.71738 | 1127 ft | 173 kts | 245° |
| 2026-05-07 13:06 | 10.84108 | 106.70637 | 923 ft | 163 kts | 245° |
| 2026-05-07 13:06 | 10.83697 | 106.69576 | 727 ft | 161 kts | 246° |
| 2026-05-07 13:06 | 10.83336 | 106.68546 | 540 ft | 151 kts | 246° |
| 2026-05-07 13:06 | 10.82955 | 106.67527 | 398 ft | 151 kts | 244° |
| 2026-05-07 13:07 | 10.82584 | 106.66553 | 138 ft | 147 kts | 244° |
| 2026-05-07 13:07 | 10.82228 | 106.65638 | 46 ft | 115 kts | 249° |
| 2026-05-07 13:07 | 10.82013 | 106.65068 | 40 ft | 66 kts | 249° |
| 2026-05-07 13:07 | 10.81865 | 106.64683 | 39 ft | 51 kts | 249° |
| 2026-05-07 13:08 | 10.81724 | 106.64398 | 37 ft | 34 kts | 224° |
| 2026-05-07 13:08 | 10.81605 | 106.64319 | 37 ft | 15 kts | 199° |
| 2026-05-07 13:08 | 10.81503 | 106.64310 | 37 ft | 15 kts | 172° |
| 2026-05-07 13:08 | 10.81409 | 106.64340 | 38 ft | 14 kts | 160° |
| 2026-05-07 13:09 | 10.81319 | 106.64375 | 38 ft | 14 kts | 158° |
| 2026-05-07 13:09 | 10.81240 | 106.64428 | 38 ft | 13 kts | 120° |
| 2026-05-07 13:09 | 10.81221 | 106.64511 | 38 ft | 12 kts | 100° |
| 2026-05-07 13:09 | 10.81208 | 106.64595 | 39 ft | 12 kts | 96° |
| 2026-05-07 13:10 | 10.81217 | 106.64674 | 39 ft | 11 kts | 69° |
| 2026-05-07 13:10 | 10.81247 | 106.64752 | 39 ft | 14 kts | 69° |
| 2026-05-07 13:10 | 10.81282 | 106.64843 | 39 ft | 14 kts | 69° |